createdAt,value
2023-05-16T00:02:19.755Z,14.95
2023-05-16T00:04:52.180Z,14.93
2023-05-16T00:07:24.407Z,14.94
2023-05-16T00:09:56.842Z,14.94
2023-05-16T00:12:29.493Z,14.96
2023-05-16T00:15:02.021Z,14.98
2023-05-16T00:17:35.754Z,14.98
2023-05-16T00:20:12.078Z,14.97
2023-05-16T00:22:44.444Z,14.97
2023-05-16T00:25:16.596Z,14.97
2023-05-16T00:27:48.822Z,14.96
2023-05-16T00:30:21.161Z,14.92
2023-05-16T00:32:53.452Z,14.90
2023-05-16T00:35:26.048Z,14.86
2023-05-16T00:37:58.325Z,14.82
2023-05-16T00:40:30.743Z,14.80
2023-05-16T00:43:03.079Z,14.76
2023-05-16T00:45:35.234Z,14.73
2023-05-16T00:48:09.502Z,14.73
2023-05-16T00:50:41.952Z,14.75
2023-05-16T00:53:14.793Z,14.80
2023-05-16T00:55:47.061Z,14.86
2023-05-16T00:58:19.321Z,14.87
2023-05-16T01:00:51.961Z,14.83
2023-05-16T01:03:24.526Z,14.78
2023-05-16T01:05:57.264Z,14.70
2023-05-16T01:08:29.413Z,14.65
2023-05-16T01:11:09.589Z,14.61
2023-05-16T01:13:51.188Z,14.61
2023-05-16T01:16:34.892Z,14.57
2023-05-16T01:19:16.631Z,14.57
2023-05-16T01:22:02.490Z,14.61
2023-05-16T01:24:44.388Z,14.61
2023-05-16T01:27:17.997Z,14.58
2023-05-16T01:29:50.262Z,14.56
2023-05-16T01:32:22.924Z,14.56
2023-05-16T01:34:56.155Z,14.55
2023-05-16T01:37:37.609Z,14.60
2023-05-16T01:40:15.018Z,14.66
2023-05-16T01:42:49.895Z,14.69
2023-05-16T01:45:28.362Z,14.67
2023-05-16T01:48:06.704Z,14.62
2023-05-16T01:50:42.338Z,14.56
2023-05-16T01:53:16.501Z,14.55
2023-05-16T01:55:51.496Z,14.57
2023-05-16T01:58:27.633Z,14.57
2023-05-16T02:01:03.836Z,14.68
2023-05-16T02:03:36.572Z,14.70
2023-05-16T02:06:09.149Z,14.69
2023-05-16T02:08:41.271Z,14.67
2023-05-16T02:11:13.488Z,14.69
2023-05-16T02:13:45.887Z,14.69
2023-05-16T02:16:18.115Z,14.70
2023-05-16T02:18:50.258Z,14.73
2023-05-16T02:21:22.656Z,14.73
2023-05-16T02:23:54.866Z,14.73
2023-05-16T02:26:27.030Z,14.73
2023-05-16T02:28:59.297Z,14.72
2023-05-16T02:31:32.991Z,14.72
2023-05-16T02:34:05.590Z,14.71
2023-05-16T02:36:37.807Z,14.72
2023-05-16T02:39:10.367Z,14.73
2023-05-16T02:41:42.653Z,14.74
2023-05-16T02:44:14.848Z,14.76
2023-05-16T02:46:47.185Z,14.76
2023-05-16T02:49:19.649Z,14.77
2023-05-16T02:51:52.110Z,14.77
2023-05-16T02:54:24.288Z,14.72
2023-05-16T02:56:56.581Z,14.66
2023-05-16T02:59:28.683Z,14.61
2023-05-16T03:02:00.957Z,14.58
2023-05-16T03:04:33.619Z,14.50
2023-05-16T03:07:06.072Z,14.48
2023-05-16T03:09:38.461Z,14.45
2023-05-16T03:12:11.101Z,14.41
2023-05-16T03:14:43.469Z,14.35
2023-05-16T03:17:15.782Z,14.41
2023-05-16T03:19:48.027Z,14.43
2023-05-16T03:22:20.727Z,14.43
2023-05-16T03:24:53.053Z,14.39
2023-05-16T03:27:26.388Z,14.35
2023-05-16T03:29:58.619Z,14.30
2023-05-16T03:32:30.882Z,14.27
2023-05-16T03:35:03.610Z,14.24
2023-05-16T03:37:36.702Z,14.22
2023-05-16T03:40:11.434Z,14.22
2023-05-16T03:42:43.705Z,14.23
2023-05-16T03:45:15.907Z,14.29
2023-05-16T03:47:49.725Z,14.36
2023-05-16T03:50:22.131Z,14.42
2023-05-16T03:52:54.521Z,14.48
2023-05-16T03:55:26.961Z,14.50
2023-05-16T03:57:59.416Z,14.52
2023-05-16T04:00:31.776Z,14.53
2023-05-16T04:03:04.309Z,14.52
2023-05-16T04:05:36.772Z,14.52
2023-05-16T04:08:09.282Z,14.55
2023-05-16T04:10:41.564Z,14.56
2023-05-16T04:13:13.844Z,14.57
2023-05-16T04:15:46.159Z,14.61
2023-05-16T04:18:19.576Z,14.64
2023-05-16T04:20:51.698Z,14.67
2023-05-16T04:23:23.818Z,14.69
2023-05-16T04:25:56.514Z,14.68
2023-05-16T04:28:28.780Z,14.65
2023-05-16T04:31:00.962Z,14.58
2023-05-16T04:33:33.247Z,14.55
2023-05-16T04:36:06.486Z,14.51
2023-05-16T04:38:38.874Z,14.45
2023-05-16T04:41:11.217Z,14.44
2023-05-16T04:43:43.568Z,14.51
2023-05-16T04:46:15.944Z,14.57
2023-05-16T04:48:48.113Z,14.60
2023-05-16T04:51:20.447Z,14.64
2023-05-16T04:53:52.456Z,14.70
2023-05-16T04:56:24.643Z,14.72
2023-05-16T04:58:56.829Z,14.74
2023-05-16T05:01:29.104Z,14.76
2023-05-16T05:04:01.282Z,14.86
2023-05-16T05:06:33.585Z,14.90
2023-05-16T05:09:07.054Z,14.95
2023-05-16T05:11:39.396Z,14.98
2023-05-16T05:14:11.593Z,15.04
2023-05-16T05:16:43.872Z,15.10
2023-05-16T05:19:16.315Z,15.15
2023-05-16T05:21:48.720Z,15.22
2023-05-16T05:24:21.044Z,15.28
2023-05-16T05:26:53.884Z,15.29
2023-05-16T05:29:26.306Z,15.34
2023-05-16T05:31:58.559Z,15.44
2023-05-16T05:34:30.889Z,15.56
2023-05-16T05:37:03.175Z,15.67
2023-05-16T05:39:35.487Z,15.74
2023-05-16T05:42:08.376Z,15.82
2023-05-16T05:44:40.830Z,15.88
2023-05-16T05:47:13.193Z,15.89
2023-05-16T05:49:46.197Z,15.93
2023-05-16T05:52:18.442Z,15.98
2023-05-16T05:54:50.864Z,16.01
2023-05-16T05:57:22.860Z,16.07
2023-05-16T05:59:55.050Z,16.13
2023-05-16T06:02:27.306Z,16.14
2023-05-16T06:05:00.124Z,16.13
2023-05-16T06:07:32.325Z,16.14
2023-05-16T06:10:05.581Z,16.17
2023-05-16T06:12:37.790Z,16.16
2023-05-16T06:15:12.152Z,16.12
2023-05-16T06:17:44.439Z,16.15
2023-05-16T06:20:17.104Z,16.21
2023-05-16T06:22:49.492Z,16.31
2023-05-16T06:25:21.776Z,16.39
2023-05-16T06:27:54.003Z,16.47
2023-05-16T06:30:26.113Z,16.55
2023-05-16T06:32:58.321Z,16.61
2023-05-16T06:35:30.711Z,16.65
2023-05-16T06:38:02.983Z,16.70
2023-05-16T06:40:35.238Z,16.77
2023-05-16T06:43:07.831Z,16.85
2023-05-16T06:45:40.101Z,16.94
2023-05-16T06:48:12.431Z,17.03
2023-05-16T06:50:45.094Z,17.07
2023-05-16T09:21:15.342Z,22.15
2023-05-16T09:23:44.584Z,22.34
2023-05-16T09:26:14.453Z,22.46
2023-05-16T09:28:44.536Z,22.67
2023-05-16T09:31:26.070Z,22.91
2023-05-16T09:33:57.252Z,23.11
2023-05-16T09:36:27.220Z,23.19
2023-05-16T09:38:56.517Z,23.23
2023-05-16T09:41:25.593Z,23.21
2023-05-16T09:43:55.463Z,23.27
2023-05-16T09:46:27.676Z,23.43
2023-05-16T09:48:56.846Z,23.69
2023-05-16T09:51:26.614Z,24.05
2023-05-16T09:53:58.461Z,24.22
2023-05-16T09:56:27.904Z,24.33
2023-05-16T09:58:56.971Z,24.57
2023-05-16T10:01:26.362Z,24.84
2023-05-16T10:03:55.668Z,25.05
2023-05-16T10:06:25.974Z,25.16
2023-05-16T10:08:55.560Z,25.28
2023-05-16T10:11:25.095Z,25.53
2023-05-16T10:13:54.113Z,25.65
2023-05-16T10:16:24.066Z,25.67
2023-05-16T10:18:54.065Z,25.74
2023-05-16T10:21:25.909Z,25.90
2023-05-16T10:23:59.826Z,25.90
2023-05-16T10:26:29.778Z,25.66
2023-05-16T10:29:00.348Z,25.47
2023-05-16T10:31:30.595Z,25.22
2023-05-16T10:34:00.249Z,25.07
2023-05-16T10:36:30.798Z,24.95
2023-05-16T10:39:00.811Z,24.89
2023-05-16T10:41:30.192Z,24.78
2023-05-16T10:43:59.733Z,24.76
2023-05-16T10:46:29.727Z,24.85
2023-05-16T10:48:59.129Z,24.92
2023-05-16T10:51:39.156Z,25.00
2023-05-16T10:54:10.791Z,25.01
2023-05-16T10:56:40.192Z,24.88
2023-05-16T10:59:24.758Z,24.73
2023-05-16T11:01:57.441Z,24.66
2023-05-16T11:04:48.334Z,24.61
2023-05-16T11:07:19.282Z,24.64
2023-05-16T11:10:03.041Z,24.63
2023-05-16T11:12:42.389Z,24.60
2023-05-16T11:15:23.250Z,24.68
2023-05-16T11:18:03.820Z,24.77
2023-05-16T11:20:34.372Z,24.88
2023-05-16T11:23:25.367Z,24.90
2023-05-16T11:25:57.251Z,24.83
2023-05-16T11:28:28.054Z,24.85
2023-05-16T11:30:59.410Z,24.96
2023-05-16T11:33:33.815Z,25.01
2023-05-16T11:36:15.303Z,25.09
2023-05-16T11:38:45.501Z,25.14
2023-05-16T11:41:17.124Z,25.22
2023-05-16T11:43:46.571Z,25.24
2023-05-16T11:46:16.675Z,25.23
2023-05-16T11:48:46.858Z,25.23
2023-05-16T11:51:19.683Z,25.26
2023-05-16T11:53:49.857Z,25.28
2023-05-16T11:56:21.736Z,25.29
2023-05-16T11:58:51.298Z,25.27
2023-05-16T12:01:20.086Z,25.23
2023-05-16T12:03:56.964Z,25.27
2023-05-16T12:06:26.255Z,25.26
2023-05-16T12:08:55.121Z,25.28
2023-05-16T12:11:25.371Z,25.25
2023-05-16T12:13:54.470Z,25.22
2023-05-16T12:16:23.778Z,25.22
2023-05-16T12:18:52.952Z,25.24
2023-05-16T12:21:21.889Z,25.26
2023-05-16T12:23:54.996Z,25.20
2023-05-16T12:26:27.070Z,25.09
2023-05-16T12:28:59.988Z,25.06
2023-05-16T12:31:32.182Z,25.03
2023-05-16T12:34:02.038Z,25.02
2023-05-16T12:36:34.353Z,25.02
2023-05-16T12:39:04.231Z,25.02
2023-05-16T12:41:33.419Z,25.01
2023-05-16T12:44:13.830Z,25.01
2023-05-16T12:46:45.083Z,25.01
2023-05-16T12:49:14.617Z,25.04
2023-05-16T12:51:50.774Z,25.09
2023-05-16T12:54:22.128Z,25.12
2023-05-16T12:56:51.252Z,25.11
2023-05-16T12:59:20.429Z,25.11
2023-05-16T13:01:50.359Z,25.10
2023-05-16T13:04:20.309Z,25.13
2023-05-16T13:06:59.333Z,25.17
2023-05-16T13:09:32.496Z,25.21
2023-05-16T13:12:02.083Z,25.25
2023-05-16T13:14:31.140Z,25.30
2023-05-16T13:17:00.207Z,25.33
2023-05-16T13:19:31.204Z,25.39
2023-05-16T13:22:00.318Z,25.46
2023-05-16T13:24:29.280Z,25.52
2023-05-16T13:26:59.051Z,25.53
2023-05-16T13:29:27.998Z,25.53
2023-05-16T13:31:57.269Z,25.53
2023-05-16T13:34:26.273Z,25.50
2023-05-16T13:36:55.270Z,25.49
2023-05-16T13:39:24.365Z,25.49
2023-05-16T13:41:54.544Z,25.47
2023-05-16T13:44:23.888Z,25.51
2023-05-16T13:46:52.855Z,25.55
2023-05-16T13:49:21.829Z,25.57
2023-05-16T13:51:51.856Z,25.55
2023-05-16T13:54:22.273Z,25.55
2023-05-16T13:56:51.349Z,25.54
2023-05-16T13:59:31.996Z,25.54
2023-05-16T14:02:09.362Z,25.53
2023-05-16T14:04:38.466Z,25.50
2023-05-16T14:07:07.342Z,25.52
2023-05-16T14:09:38.785Z,25.52
2023-05-16T14:12:08.935Z,25.53
2023-05-16T14:14:39.532Z,25.52
2023-05-16T14:17:08.591Z,25.47
2023-05-16T14:19:37.566Z,25.42
2023-05-16T14:22:07.650Z,25.38
2023-05-16T14:24:36.455Z,25.33
2023-05-16T14:27:06.464Z,25.29
2023-05-16T14:29:35.537Z,25.24
2023-05-16T14:32:05.088Z,25.20
2023-05-16T14:34:34.293Z,25.18
2023-05-16T14:37:03.499Z,25.18
2023-05-16T14:39:32.521Z,25.10
2023-05-16T14:42:01.422Z,25.07
2023-05-16T14:44:30.930Z,25.04
2023-05-16T14:47:00.086Z,25.02
2023-05-16T14:49:29.099Z,25.00
2023-05-16T14:51:58.168Z,24.98
2023-05-16T14:54:27.179Z,24.95
2023-05-16T14:56:56.288Z,24.90
2023-05-16T14:59:25.583Z,24.87
2023-05-16T15:01:54.726Z,24.86
2023-05-16T15:04:23.772Z,24.87
2023-05-16T15:06:52.726Z,24.86
2023-05-16T15:09:21.754Z,24.86
2023-05-16T15:11:50.795Z,24.83
2023-05-16T15:14:20.048Z,24.78
2023-05-16T15:16:49.275Z,24.77
2023-05-16T15:19:18.261Z,24.75
2023-05-16T15:21:47.279Z,24.75
2023-05-16T15:24:16.721Z,24.74
2023-05-16T15:26:45.920Z,24.72
2023-05-16T15:29:14.905Z,24.69
2023-05-16T15:31:44.069Z,24.64
2023-05-16T15:34:13.115Z,24.61
2023-05-16T15:36:42.190Z,24.59
2023-05-16T15:39:11.290Z,24.56
2023-05-16T15:42:01.021Z,24.52
2023-05-16T15:44:29.244Z,24.48
2023-05-16T15:46:58.300Z,24.45
2023-05-16T15:49:27.572Z,24.43
2023-05-16T15:51:56.538Z,24.39
2023-05-16T15:54:25.737Z,24.36
2023-05-16T15:56:54.928Z,24.34
2023-05-16T15:59:24.559Z,24.32
2023-05-16T16:01:53.737Z,24.27
2023-05-16T16:04:23.769Z,24.21
2023-05-16T16:06:52.884Z,24.15
2023-05-16T16:09:21.886Z,24.11
2023-05-16T16:11:55.475Z,24.10
2023-05-16T16:14:25.348Z,24.08
2023-05-16T16:16:54.413Z,24.05
2023-05-16T16:19:23.659Z,24.02
2023-05-16T16:21:52.918Z,23.99
2023-05-16T16:24:22.137Z,23.94
2023-05-16T16:26:51.397Z,23.89
2023-05-16T16:29:20.336Z,23.87
2023-05-16T16:31:49.378Z,23.85
2023-05-16T16:34:20.947Z,23.84
2023-05-16T16:36:51.615Z,23.80
2023-05-16T16:39:20.561Z,23.75
2023-05-16T16:41:49.705Z,23.72
2023-05-16T16:44:20.333Z,23.68
2023-05-16T16:46:49.823Z,23.63
2023-05-16T16:49:18.975Z,23.56
2023-05-16T16:51:49.484Z,23.50
2023-05-16T16:54:18.445Z,23.47
2023-05-16T16:56:48.949Z,23.44
2023-05-16T16:59:18.199Z,23.39
2023-05-16T17:01:47.510Z,23.34
2023-05-16T17:04:16.523Z,23.28
2023-05-16T17:06:47.822Z,23.20
2023-05-16T17:09:19.112Z,23.15
2023-05-16T17:11:48.248Z,23.11
2023-05-16T17:14:17.381Z,23.05
2023-05-16T17:16:46.550Z,23.00
2023-05-16T17:19:15.631Z,22.95
2023-05-16T17:21:49.974Z,22.87
2023-05-16T17:24:19.130Z,22.80
2023-05-16T17:26:48.371Z,22.74
2023-05-16T17:29:17.595Z,22.67
2023-05-16T17:31:46.668Z,22.56
2023-05-16T17:34:15.575Z,22.47
2023-05-16T17:36:44.785Z,22.40
2023-05-16T17:39:14.423Z,22.36
2023-05-16T17:41:43.392Z,22.30
2023-05-16T17:44:12.412Z,22.24
2023-05-16T17:46:42.088Z,22.16
2023-05-16T17:49:11.138Z,22.10
2023-05-16T17:51:48.056Z,22.03
2023-05-16T17:54:18.218Z,21.98
2023-05-16T17:56:48.102Z,21.91
2023-05-16T17:59:17.689Z,21.86
2023-05-16T18:01:46.967Z,21.80
2023-05-16T18:04:17.603Z,21.70
2023-05-16T18:06:47.811Z,21.62
2023-05-16T18:09:16.860Z,21.55
2023-05-16T18:11:45.980Z,21.46
2023-05-16T18:14:15.354Z,21.36
2023-05-16T18:16:44.532Z,21.28
2023-05-16T18:19:13.681Z,21.23
2023-05-16T18:21:44.492Z,21.16
2023-05-16T18:24:13.567Z,21.08
2023-05-16T18:26:43.761Z,21.00
2023-05-16T18:29:12.736Z,20.90
2023-05-16T18:31:41.969Z,20.84
2023-05-16T18:34:12.012Z,20.76
2023-05-16T18:36:40.982Z,20.69
2023-05-16T18:39:10.707Z,20.59
2023-05-16T18:41:40.358Z,20.49
2023-05-16T18:44:09.649Z,20.42
2023-05-16T18:46:38.655Z,20.33
2023-05-16T18:49:07.743Z,20.24
2023-05-16T18:51:36.855Z,20.16
2023-05-16T18:54:05.853Z,20.07
2023-05-16T18:56:35.441Z,20.00
2023-05-16T18:59:04.381Z,19.93
2023-05-16T19:01:33.924Z,19.82
2023-05-16T19:04:03.468Z,19.76
2023-05-16T19:06:32.496Z,19.69
2023-05-16T19:09:01.789Z,19.64
2023-05-16T19:11:30.926Z,19.57
2023-05-16T19:13:59.955Z,19.50
2023-05-16T19:16:28.997Z,19.45
2023-05-16T19:18:58.042Z,19.38
2023-05-16T19:21:27.662Z,19.27
2023-05-16T19:23:56.843Z,19.19
2023-05-16T19:26:26.011Z,19.15
2023-05-16T19:28:55.264Z,19.08
2023-05-16T19:31:24.549Z,18.98
2023-05-16T19:33:53.525Z,18.91
2023-05-16T19:36:22.500Z,18.87
2023-05-16T19:38:51.536Z,18.79
2023-05-16T19:41:21.462Z,18.69
2023-05-16T19:43:50.635Z,18.58
2023-05-16T19:46:19.779Z,18.50
2023-05-16T19:48:49.158Z,18.47
2023-05-16T19:51:29.508Z,18.45
2023-05-16T19:54:06.598Z,18.37
2023-05-16T19:56:35.568Z,18.29
2023-05-16T19:59:04.655Z,18.25
2023-05-16T20:01:33.563Z,18.20
2023-05-16T20:04:04.940Z,18.15
2023-05-16T20:06:34.135Z,18.09
2023-05-16T20:09:03.162Z,17.97
2023-05-16T20:11:32.091Z,17.90
2023-05-16T20:14:00.981Z,17.83
2023-05-16T20:16:29.971Z,17.77
2023-05-16T20:18:59.326Z,17.72
2023-05-16T20:21:28.564Z,17.72
2023-05-16T20:23:57.513Z,17.68
2023-05-16T20:26:26.636Z,17.68
2023-05-16T20:28:55.680Z,17.66
2023-05-16T20:31:24.710Z,17.63
2023-05-16T20:33:53.607Z,17.59
2023-05-16T20:36:22.705Z,17.57
2023-05-16T20:38:51.831Z,17.57
2023-05-16T20:41:21.403Z,17.57
2023-05-16T20:43:50.714Z,17.54
2023-05-16T20:46:19.730Z,17.50
2023-05-16T20:48:48.686Z,17.48
2023-05-16T20:51:17.877Z,17.44
2023-05-16T20:53:47.002Z,17.38
2023-05-16T20:56:15.802Z,17.31
2023-05-16T20:58:45.015Z,17.24
2023-05-16T21:01:13.898Z,17.20
2023-05-16T21:03:42.975Z,17.17
2023-05-16T21:06:12.110Z,17.13
2023-05-16T21:08:42.686Z,17.10
2023-05-16T21:11:11.812Z,17.09
2023-05-16T21:13:41.212Z,17.07
2023-05-16T21:16:11.954Z,17.05
2023-05-16T21:18:41.171Z,17.03
2023-05-16T21:21:10.526Z,16.95
2023-05-16T21:23:39.551Z,16.85
2023-05-16T21:26:08.782Z,16.80
2023-05-16T21:28:45.934Z,16.74
2023-05-16T21:31:23.299Z,16.66
2023-05-16T21:33:52.799Z,16.61
2023-05-16T21:36:22.759Z,16.55
2023-05-16T21:38:51.663Z,16.48
2023-05-16T21:41:21.825Z,16.42
2023-05-16T21:43:50.921Z,16.38
2023-05-16T21:46:20.479Z,16.33
2023-05-16T21:48:49.791Z,16.30
2023-05-16T21:51:19.250Z,16.24
2023-05-16T21:53:48.242Z,16.17
2023-05-16T21:56:18.251Z,16.09
2023-05-16T21:58:47.529Z,16.00
2023-05-16T22:01:16.821Z,15.92
2023-05-16T22:03:46.946Z,15.88
2023-05-16T22:06:16.062Z,15.80
2023-05-16T22:08:45.357Z,15.74
2023-05-16T22:11:14.613Z,15.68
2023-05-16T22:13:43.814Z,15.62
2023-05-16T22:16:12.990Z,15.60
2023-05-16T22:18:42.308Z,15.60
2023-05-16T22:21:11.755Z,15.59
2023-05-16T22:23:40.817Z,15.57
2023-05-16T22:26:10.008Z,15.56
2023-05-16T22:28:39.051Z,15.54
2023-05-16T22:31:08.190Z,15.49
2023-05-16T22:33:37.375Z,15.48
2023-05-16T22:36:07.673Z,15.48
2023-05-16T22:38:36.719Z,15.47
2023-05-16T22:41:06.198Z,15.44
2023-05-16T22:43:35.299Z,15.41
2023-05-16T22:46:04.470Z,15.40
2023-05-16T22:48:33.609Z,15.40
2023-05-16T22:51:02.880Z,15.38
2023-05-16T22:53:31.932Z,15.34
2023-05-16T22:56:01.180Z,15.30
2023-05-16T22:58:30.423Z,15.29
2023-05-16T23:01:00.825Z,15.28
2023-05-16T23:03:30.303Z,15.27
2023-05-16T23:05:59.443Z,15.25
2023-05-16T23:08:28.990Z,15.23
2023-05-16T23:10:58.216Z,15.24
2023-05-16T23:13:27.483Z,15.24
2023-05-16T23:15:56.738Z,15.23
2023-05-16T23:18:25.996Z,15.22
2023-05-16T23:20:55.101Z,15.20
2023-05-16T23:23:24.353Z,15.19
2023-05-16T23:25:53.570Z,15.19
2023-05-16T23:28:22.719Z,15.20
2023-05-16T23:30:51.981Z,15.19
2023-05-16T23:33:21.113Z,15.18
2023-05-16T23:35:50.218Z,15.18
2023-05-16T23:38:21.348Z,15.18
2023-05-16T23:40:50.434Z,15.18
2023-05-16T23:43:19.535Z,15.16
2023-05-16T23:45:48.596Z,15.17
2023-05-16T23:48:17.621Z,15.15
2023-05-16T23:50:46.750Z,15.11
2023-05-16T23:53:16.070Z,15.06
2023-05-16T23:55:45.465Z,15.00
2023-05-16T23:58:14.559Z,14.95
